createdAt,value
2018-12-06T00:08:46.426Z,12.00
2018-12-06T00:29:24.274Z,16.17
2018-12-06T00:49:59.667Z,14.03
2018-12-06T01:10:39.124Z,12.90
2018-12-06T01:31:15.318Z,14.50
2018-12-06T01:51:50.281Z,17.27
2018-12-06T02:12:27.701Z,15.37
2018-12-06T02:33:05.126Z,14.63
2018-12-06T02:53:41.323Z,20.30
2018-12-06T03:14:17.515Z,24.40
2018-12-06T03:34:53.894Z,17.47
2018-12-06T03:55:32.776Z,18.40
2018-12-06T04:16:11.020Z,15.87
2018-12-06T04:36:49.664Z,22.87
2018-12-06T04:57:26.681Z,19.93
2018-12-06T05:18:04.101Z,19.30
2018-12-06T05:38:41.934Z,22.37
2018-12-06T05:59:18.535Z,19.40
2018-12-06T06:19:53.500Z,15.60
2018-12-06T06:40:30.106Z,16.63
2018-12-06T07:01:06.300Z,13.67
2018-12-06T07:21:44.543Z,31.37
2018-12-06T07:42:18.877Z,4.40
2018-12-06T08:02:56.928Z,2.97
2018-12-06T08:23:36.411Z,5.53
2018-12-06T08:44:21.104Z,6.80
2018-12-06T09:04:53.704Z,6.20
2018-12-06T09:25:31.126Z,11.03
2018-12-06T09:46:09.448Z,9.93
2018-12-06T10:06:46.477Z,10.87
2018-12-06T10:27:24.628Z,9.90
2018-12-06T10:48:02.875Z,7.30
2018-12-06T11:08:44.514Z,8.00
2018-12-06T11:29:26.733Z,8.23
2018-12-06T11:50:02.920Z,9.60
2018-12-06T12:10:39.291Z,9.00
2018-12-06T12:31:17.362Z,13.97
2018-12-06T12:51:56.422Z,9.20
2018-12-06T13:12:33.028Z,11.37
2018-12-06T13:33:07.170Z,8.50
2018-12-06T13:53:46.238Z,7.93
2018-12-06T14:14:24.474Z,10.30
2018-12-06T14:34:59.850Z,6.23
2018-12-06T14:55:37.273Z,6.03
2018-12-06T15:16:13.466Z,7.43
2018-12-06T15:36:49.665Z,9.53
2018-12-06T15:57:24.627Z,10.47
2018-12-06T16:18:06.973Z,9.83
2018-12-06T16:38:45.213Z,18.03
2018-12-06T16:59:21.405Z,9.80
2018-12-06T17:19:55.959Z,5.07
2018-12-06T17:40:37.888Z,6.77
2018-12-06T18:01:16.542Z,5.83
2018-12-06T18:21:51.505Z,5.60
2018-12-06T18:42:28.924Z,4.23
2018-12-06T19:03:05.939Z,4.77
2018-12-06T19:23:42.138Z,6.27
2018-12-06T19:44:18.795Z,4.30
2018-12-06T20:04:57.059Z,7.73
2018-12-06T20:25:36.048Z,4.63
2018-12-06T20:46:12.241Z,3.27
2018-12-06T21:06:46.787Z,4.47
2018-12-06T21:27:25.048Z,2.17
2018-12-06T21:48:02.877Z,1.20
2018-12-06T22:08:41.528Z,2.10
2018-12-06T22:29:18.538Z,1.20
2018-12-06T22:49:55.968Z,1.40
2018-12-06T23:10:30.299Z,2.40
2018-12-06T23:31:08.354Z,2.47
2018-12-06T23:51:48.828Z,1.00
